sensor_id;sensor_type;location;lat;lon;timestamp;temperature;humidity
78775;DHT22;68119;43.398;3.676;2023-08-06T00:01:25;19.50;62.70
78775;DHT22;68119;43.398;3.676;2023-08-06T00:03:54;19.50;62.70
78775;DHT22;68119;43.398;3.676;2023-08-06T00:06:23;19.50;62.90
78775;DHT22;68119;43.398;3.676;2023-08-06T00:08:51;19.60;62.90
78775;DHT22;68119;43.398;3.676;2023-08-06T00:11:23;19.50;63.20
78775;DHT22;68119;43.398;3.676;2023-08-06T00:13:51;19.50;63.20
78775;DHT22;68119;43.398;3.676;2023-08-06T00:16:17;15.20;63.40
78775;DHT22;68119;43.398;3.676;2023-08-06T00:21:17;15.70;63.80
78775;DHT22;68119;43.398;3.676;2023-08-06T00:23:45;14.50;64.00
78775;DHT22;68119;43.398;3.676;2023-08-06T00:26:13;14.20;64.50
78775;DHT22;68119;43.398;3.676;2023-08-06T00:58:11;11.90;64.60
78775;DHT22;68119;43.398;3.676;2023-08-06T01:00:43;19.40;64.10
78775;DHT22;68119;43.398;3.676;2023-08-06T01:03:11;19.40;64.40
78775;DHT22;68119;43.398;3.676;2023-08-06T01:05:37;19.40;64.40
78775;DHT22;68119;43.398;3.676;2023-08-06T01:08:08;19.30;64.50
78775;DHT22;68119;43.398;3.676;2023-08-06T01:13:54;19.30;64.10
78775;DHT22;68119;43.398;3.676;2023-08-06T01:15:54;19.30;64.20
78775;DHT22;68119;43.398;3.676;2023-08-06T01:18:23;19.40;63.60
78775;DHT22;68119;43.398;3.676;2023-08-06T01:20:51;19.30;63.60
78775;DHT22;68119;43.398;3.676;2023-08-06T01:23:18;19.40;63.20
78775;DHT22;68119;43.398;3.676;2023-08-06T01:25:49;19.30;63.00
78775;DHT22;68119;43.398;3.676;2023-08-06T01:28:23;19.30;62.30
78775;DHT22;68119;43.398;3.676;2023-08-06T01:30:53;19.30;60.70
78775;DHT22;68119;43.398;3.676;2023-08-06T01:33:23;19.40;59.50
78775;DHT22;68119;43.398;3.676;2023-08-06T01:35:49;19.50;58.40
78775;DHT22;68119;43.398;3.676;2023-08-06T01:38:17;19.50;57.30
78775;DHT22;68119;43.398;3.676;2023-08-06T01:40:45;19.60;57.10
78775;DHT22;68119;43.398;3.676;2023-08-06T01:43:16;19.70;57.10
78775;DHT22;68119;43.398;3.676;2023-08-06T01:45:48;19.60;56.70
78775;DHT22;68119;43.398;3.676;2023-08-06T01:48:16;19.70;56.00
78775;DHT22;68119;43.398;3.676;2023-08-06T01:50:42;19.70;56.20
78775;DHT22;68119;43.398;3.676;2023-08-06T01:53:13;19.50;56.50
78775;DHT22;68119;43.398;3.676;2023-08-06T01:55:41;19.50;56.00
78775;DHT22;68119;43.398;3.676;2023-08-06T01:58:15;19.50;56.30
78775;DHT22;68119;43.398;3.676;2023-08-06T02:00:43;19.50;56.30
78775;DHT22;68119;43.398;3.676;2023-08-06T02:03:09;19.50;55.80
78775;DHT22;68119;43.398;3.676;2023-08-06T02:05:37;19.50;55.70
78775;DHT22;68119;43.398;3.676;2023-08-06T02:08:06;19.50;56.00
78775;DHT22;68119;43.398;3.676;2023-08-06T02:10:36;19.50;55.50
78775;DHT22;68119;43.398;3.676;2023-08-06T02:13:02;19.50;55.50
78775;DHT22;68119;43.398;3.676;2023-08-06T02:15:28;19.50;55.80
78775;DHT22;68119;43.398;3.676;2023-08-06T02:17:56;19.40;55.70
78775;DHT22;68119;43.398;3.676;2023-08-06T02:20:24;19.40;55.50
78775;DHT22;68119;43.398;3.676;2023-08-06T02:22:54;19.40;55.40
78775;DHT22;68119;43.398;3.676;2023-08-06T02:25:23;19.40;55.40
78775;DHT22;68119;43.398;3.676;2023-08-06T02:27:52;19.50;55.00
78775;DHT22;68119;43.398;3.676;2023-08-06T02:30:20;19.40;55.10
78775;DHT22;68119;43.398;3.676;2023-08-06T02:32:48;19.40;55.00
78775;DHT22;68119;43.398;3.676;2023-08-06T02:35:20;19.40;54.80
78775;DHT22;68119;43.398;3.676;2023-08-06T02:37:48;19.30;55.00
78775;DHT22;68119;43.398;3.676;2023-08-06T02:40:20;19.40;55.00
78775;DHT22;68119;43.398;3.676;2023-08-06T02:42:47;19.40;54.70
78775;DHT22;68119;43.398;3.676;2023-08-06T02:45:13;19.40;54.70
78775;DHT22;68119;43.398;3.676;2023-08-06T02:47:41;19.30;54.80
78775;DHT22;68119;43.398;3.676;2023-08-06T02:50:09;19.30;54.80
78775;DHT22;68119;43.398;3.676;2023-08-06T02:52:38;19.30;54.90
78775;DHT22;68119;43.398;3.676;2023-08-06T02:55:07;19.20;54.90
78775;DHT22;68119;43.398;3.676;2023-08-06T02:57:35;19.20;54.80
78775;DHT22;68119;43.398;3.676;2023-08-06T03:00:04;19.10;54.70
78775;DHT22;68119;43.398;3.676;2023-08-06T03:02:29;19.10;54.80
78775;DHT22;68119;43.398;3.676;2023-08-06T03:04:58;19.00;55.10
78775;DHT22;68119;43.398;3.676;2023-08-06T03:07:26;19.00;55.20
78775;DHT22;68119;43.398;3.676;2023-08-06T03:09:55;18.90;55.50
78775;DHT22;68119;43.398;3.676;2023-08-06T03:12:26;18.80;55.80
78775;DHT22;68119;43.398;3.676;2023-08-06T03:14:52;18.70;56.20
78775;DHT22;68119;43.398;3.676;2023-08-06T03:17:20;18.60;56.50
78775;DHT22;68119;43.398;3.676;2023-08-06T03:22:11;18.60;56.60
78775;DHT22;68119;43.398;3.676;2023-08-06T03:24:37;18.50;56.20
78775;DHT22;68119;43.398;3.676;2023-08-06T03:27:03;18.50;56.30
78775;DHT22;68119;43.398;3.676;2023-08-06T03:29:28;18.40;56.80
78775;DHT22;68119;43.398;3.676;2023-08-06T03:31:54;18.30;56.50
78775;DHT22;68119;43.398;3.676;2023-08-06T03:34:20;18.30;56.70
78775;DHT22;68119;43.398;3.676;2023-08-06T03:36:48;18.20;56.60
78775;DHT22;68119;43.398;3.676;2023-08-06T03:39:19;18.20;56.40
78775;DHT22;68119;43.398;3.676;2023-08-06T03:41:45;18.10;56.20
78775;DHT22;68119;43.398;3.676;2023-08-06T03:44:10;18.10;56.30
78775;DHT22;68119;43.398;3.676;2023-08-06T03:46:39;18.00;56.50
78775;DHT22;68119;43.398;3.676;2023-08-06T03:49:07;18.00;56.80
78775;DHT22;68119;43.398;3.676;2023-08-06T03:51:38;18.00;56.60
78775;DHT22;68119;43.398;3.676;2023-08-06T03:54:06;17.90;56.70
78775;DHT22;68119;43.398;3.676;2023-08-06T03:56:37;17.90;56.30
78775;DHT22;68119;43.398;3.676;2023-08-06T03:59:03;17.80;56.20
78775;DHT22;68119;43.398;3.676;2023-08-06T04:01:31;17.80;56.00
78775;DHT22;68119;43.398;3.676;2023-08-06T04:03:59;17.80;56.20
78775;DHT22;68119;43.398;3.676;2023-08-06T04:06:27;17.80;55.70
78775;DHT22;68119;43.398;3.676;2023-08-06T04:08:53;17.80;55.70
78775;DHT22;68119;43.398;3.676;2023-08-06T04:11:24;17.80;55.90
78775;DHT22;68119;43.398;3.676;2023-08-06T04:13:52;17.80;55.70
78775;DHT22;68119;43.398;3.676;2023-08-06T04:16:21;17.80;55.90
78775;DHT22;68119;43.398;3.676;2023-08-06T04:23:38;17.80;55.50
78775;DHT22;68119;43.398;3.676;2023-08-06T04:26:10;17.70;55.90
78775;DHT22;68119;43.398;3.676;2023-08-06T04:28:38;17.60;56.20
78775;DHT22;68119;43.398;3.676;2023-08-06T04:31:04;17.60;56.00
78775;DHT22;68119;43.398;3.676;2023-08-06T04:33:32;17.60;55.90
78775;DHT22;68119;43.398;3.676;2023-08-06T04:36:00;17.60;55.70
78775;DHT22;68119;43.398;3.676;2023-08-06T04:38:33;17.60;55.70
78775;DHT22;68119;43.398;3.676;2023-08-06T04:41:02;17.50;55.80
78775;DHT22;68119;43.398;3.676;2023-08-06T04:43:28;17.70;55.50
78775;DHT22;68119;43.398;3.676;2023-08-06T04:45:56;17.60;55.10
78775;DHT22;68119;43.398;3.676;2023-08-06T04:48:25;17.70;55.40
78775;DHT22;68119;43.398;3.676;2023-08-06T04:50:53;17.70;55.70
78775;DHT22;68119;43.398;3.676;2023-08-06T04:53:24;17.70;55.30
78775;DHT22;68119;43.398;3.676;2023-08-06T04:55:52;17.60;55.70
78775;DHT22;68119;43.398;3.676;2023-08-06T04:58:20;17.80;55.10
78775;DHT22;68119;43.398;3.676;2023-08-06T05:00:51;17.70;55.20
78775;DHT22;68119;43.398;3.676;2023-08-06T05:03:22;17.70;55.40
78775;DHT22;68119;43.398;3.676;2023-08-06T05:05:52;17.70;55.60
78775;DHT22;68119;43.398;3.676;2023-08-06T05:08:21;17.70;55.90
78775;DHT22;68119;43.398;3.676;2023-08-06T05:10:52;17.70;55.80
78775;DHT22;68119;43.398;3.676;2023-08-06T05:13:17;17.70;55.50
78775;DHT22;68119;43.398;3.676;2023-08-06T05:15:45;17.60;56.00
78775;DHT22;68119;43.398;3.676;2023-08-06T05:18:16;17.70;55.90
78775;DHT22;68119;43.398;3.676;2023-08-06T05:20:45;17.70;56.20
78775;DHT22;68119;43.398;3.676;2023-08-06T05:23:10;17.70;56.50
78775;DHT22;68119;43.398;3.676;2023-08-06T05:25:36;17.70;56.60
78775;DHT22;68119;43.398;3.676;2023-08-06T05:28:05;17.60;57.00
78775;DHT22;68119;43.398;3.676;2023-08-06T05:30:33;17.60;57.20
78775;DHT22;68119;43.398;3.676;2023-08-06T05:33:02;17.60;56.70
78775;DHT22;68119;43.398;3.676;2023-08-06T05:35:28;17.80;56.50
78775;DHT22;68119;43.398;3.676;2023-08-06T05:37:56;17.70;57.60
78775;DHT22;68119;43.398;3.676;2023-08-06T05:40:22;17.60;57.30
78775;DHT22;68119;43.398;3.676;2023-08-06T05:42:48;17.60;57.40
78775;DHT22;68119;43.398;3.676;2023-08-06T06:04:54;17.60;57.60
78775;DHT22;68119;43.398;3.676;2023-08-06T06:07:20;18.00;57.10
78775;DHT22;68119;43.398;3.676;2023-08-06T06:09:49;18.10;57.10
78775;DHT22;68119;43.398;3.676;2023-08-06T06:12:17;18.20;57.00
78775;DHT22;68119;43.398;3.676;2023-08-06T06:14:47;18.20;57.10
78775;DHT22;68119;43.398;3.676;2023-08-06T06:17:13;18.20;57.10
78775;DHT22;68119;43.398;3.676;2023-08-06T06:19:44;18.20;56.50
78775;DHT22;68119;43.398;3.676;2023-08-06T06:22:12;18.30;56.30
78775;DHT22;68119;43.398;3.676;2023-08-06T06:24:40;18.30;55.70
78775;DHT22;68119;43.398;3.676;2023-08-06T06:27:10;18.30;55.30
78775;DHT22;68119;43.398;3.676;2023-08-06T06:29:39;18.40;55.00
78775;DHT22;68119;43.398;3.676;2023-08-06T06:32:04;18.40;55.40
78775;DHT22;68119;43.398;3.676;2023-08-06T06:34:30;18.40;54.80
78775;DHT22;68119;43.398;3.676;2023-08-06T06:36:58;18.40;54.80
78775;DHT22;68119;43.398;3.676;2023-08-06T06:39:26;18.40;54.10
78775;DHT22;68119;43.398;3.676;2023-08-06T06:41:54;18.50;54.10
78775;DHT22;68119;43.398;3.676;2023-08-06T06:44:20;18.50;52.80
78775;DHT22;68119;43.398;3.676;2023-08-06T06:46:46;18.50;52.40
78775;DHT22;68119;43.398;3.676;2023-08-06T06:49:14;18.50;52.50
78775;DHT22;68119;43.398;3.676;2023-08-06T06:51:40;18.60;51.90
78775;DHT22;68119;43.398;3.676;2023-08-06T06:54:08;18.60;51.90
78775;DHT22;68119;43.398;3.676;2023-08-06T06:56:34;18.70;51.80
78775;DHT22;68119;43.398;3.676;2023-08-06T06:58:59;18.70;51.50
78775;DHT22;68119;43.398;3.676;2023-08-06T07:01:31;18.70;51.30
78775;DHT22;68119;43.398;3.676;2023-08-06T07:04:02;18.70;51.00
78775;DHT22;68119;43.398;3.676;2023-08-06T07:06:31;18.70;50.70
78775;DHT22;68119;43.398;3.676;2023-08-06T07:08:57;18.80;50.30
78775;DHT22;68119;43.398;3.676;2023-08-06T07:11:25;18.90;50.10
78775;DHT22;68119;43.398;3.676;2023-08-06T07:13:55;18.90;50.60
78775;DHT22;68119;43.398;3.676;2023-08-06T07:16:21;19.00;50.50
78775;DHT22;68119;43.398;3.676;2023-08-06T07:18:47;19.00;49.90
78775;DHT22;68119;43.398;3.676;2023-08-06T07:21:13;19.10;50.00
78775;DHT22;68119;43.398;3.676;2023-08-06T07:23:43;19.10;50.50
78775;DHT22;68119;43.398;3.676;2023-08-06T07:26:09;19.10;51.10
78775;DHT22;68119;43.398;3.676;2023-08-06T07:28:37;19.10;50.40
78775;DHT22;68119;43.398;3.676;2023-08-06T07:31:05;19.20;50.30
78775;DHT22;68119;43.398;3.676;2023-08-06T07:33:34;19.20;50.80
78775;DHT22;68119;43.398;3.676;2023-08-06T07:36:11;19.30;50.00
78775;DHT22;68119;43.398;3.676;2023-08-06T07:38:39;19.30;49.60
78775;DHT22;68119;43.398;3.676;2023-08-06T07:41:11;19.30;49.80
78775;DHT22;68119;43.398;3.676;2023-08-06T07:43:39;19.20;48.80
78775;DHT22;68119;43.398;3.676;2023-08-06T07:46:08;19.20;49.30
78775;DHT22;68119;43.398;3.676;2023-08-06T07:48:36;19.30;49.80
78775;DHT22;68119;43.398;3.676;2023-08-06T07:51:04;19.40;49.90
78775;DHT22;68119;43.398;3.676;2023-08-06T07:53:36;19.50;49.30
78775;DHT22;68119;43.398;3.676;2023-08-06T07:56:09;19.50;49.30
78775;DHT22;68119;43.398;3.676;2023-08-06T07:58:35;19.50;49.30
78775;DHT22;68119;43.398;3.676;2023-08-06T08:01:05;19.60;49.20
78775;DHT22;68119;43.398;3.676;2023-08-06T08:03:35;19.50;49.40
78775;DHT22;68119;43.398;3.676;2023-08-06T08:06:06;19.70;49.50
78775;DHT22;68119;43.398;3.676;2023-08-06T08:08:34;19.70;49.80
78775;DHT22;68119;43.398;3.676;2023-08-06T08:11:06;19.80;49.30
78775;DHT22;68119;43.398;3.676;2023-08-06T08:13:32;20.00;49.60
78775;DHT22;68119;43.398;3.676;2023-08-06T08:16:00;20.00;49.90
78775;DHT22;68119;43.398;3.676;2023-08-06T08:18:29;20.00;49.80
78775;DHT22;68119;43.398;3.676;2023-08-06T08:20:57;20.10;49.50
78775;DHT22;68119;43.398;3.676;2023-08-06T08:23:23;20.10;49.70
78775;DHT22;68119;43.398;3.676;2023-08-06T08:25:49;20.30;49.10
78775;DHT22;68119;43.398;3.676;2023-08-06T08:28:14;20.20;48.40
78775;DHT22;68119;43.398;3.676;2023-08-06T08:30:43;20.30;47.90
78775;DHT22;68119;43.398;3.676;2023-08-06T08:33:12;20.50;47.70
78775;DHT22;68119;43.398;3.676;2023-08-06T08:35:46;20.50;47.60
78775;DHT22;68119;43.398;3.676;2023-08-06T08:38:17;20.50;47.40
78775;DHT22;68119;43.398;3.676;2023-08-06T08:40:46;20.60;47.10
78775;DHT22;68119;43.398;3.676;2023-08-06T08:43:14;20.50;47.10
78775;DHT22;68119;43.398;3.676;2023-08-06T08:45:40;20.70;46.90
78775;DHT22;68119;43.398;3.676;2023-08-06T08:48:08;20.70;46.90
78775;DHT22;68119;43.398;3.676;2023-08-06T08:50:40;20.60;48.60
78775;DHT22;68119;43.398;3.676;2023-08-06T08:53:06;20.70;49.20
78775;DHT22;68119;43.398;3.676;2023-08-06T08:55:37;20.50;48.70
78775;DHT22;68119;43.398;3.676;2023-08-06T08:58:08;20.50;48.00
78775;DHT22;68119;43.398;3.676;2023-08-06T09:00:37;20.50;48.30
78775;DHT22;68119;43.398;3.676;2023-08-06T09:03:06;20.50;48.20
78775;DHT22;68119;43.398;3.676;2023-08-06T09:05:34;20.70;48.40
78775;DHT22;68119;43.398;3.676;2023-08-06T09:08:04;20.70;48.00
78775;DHT22;68119;43.398;3.676;2023-08-06T09:10:32;20.90;47.90
78775;DHT22;68119;43.398;3.676;2023-08-06T09:13:06;20.90;48.80
78775;DHT22;68119;43.398;3.676;2023-08-06T09:15:34;21.00;48.30
78775;DHT22;68119;43.398;3.676;2023-08-06T09:18:08;21.00;47.90
78775;DHT22;68119;43.398;3.676;2023-08-06T09:20:40;20.90;47.40
78775;DHT22;68119;43.398;3.676;2023-08-06T09:23:09;21.10;47.10
78775;DHT22;68119;43.398;3.676;2023-08-06T09:25:42;21.30;46.50
78775;DHT22;68119;43.398;3.676;2023-08-06T09:28:08;21.50;46.40
78775;DHT22;68119;43.398;3.676;2023-08-06T09:30:37;21.50;45.80
78775;DHT22;68119;43.398;3.676;2023-08-06T09:33:03;21.70;46.20
78775;DHT22;68119;43.398;3.676;2023-08-06T09:35:29;21.70;45.30
78775;DHT22;68119;43.398;3.676;2023-08-06T09:38:01;21.90;44.70
78775;DHT22;68119;43.398;3.676;2023-08-06T09:40:32;21.80;45.00
78775;DHT22;68119;43.398;3.676;2023-08-06T09:43:03;21.90;44.80
78775;DHT22;68119;43.398;3.676;2023-08-06T09:45:38;22.00;45.00
78775;DHT22;68119;43.398;3.676;2023-08-06T09:48:04;22.10;44.90
78775;DHT22;68119;43.398;3.676;2023-08-06T09:50:33;22.10;44.30
78775;DHT22;68119;43.398;3.676;2023-08-06T09:53:04;22.20;44.30
78775;DHT22;68119;43.398;3.676;2023-08-06T09:55:33;22.10;44.40
78775;DHT22;68119;43.398;3.676;2023-08-06T09:58:07;22.10;44.70
78775;DHT22;68119;43.398;3.676;2023-08-06T10:00:37;22.30;44.20
78775;DHT22;68119;43.398;3.676;2023-08-06T10:03:03;22.50;44.20
78775;DHT22;68119;43.398;3.676;2023-08-06T10:05:29;22.50;43.40
78775;DHT22;68119;43.398;3.676;2023-08-06T10:07:57;22.50;44.20
78775;DHT22;68119;43.398;3.676;2023-08-06T10:10:26;22.50;44.20
78775;DHT22;68119;43.398;3.676;2023-08-06T10:13:01;22.30;43.40
78775;DHT22;68119;43.398;3.676;2023-08-06T10:15:29;22.20;44.70
78775;DHT22;68119;43.398;3.676;2023-08-06T10:17:56;22.50;44.30
78775;DHT22;68119;43.398;3.676;2023-08-06T10:20:23;22.60;43.20
78775;DHT22;68119;43.398;3.676;2023-08-06T10:25:28;22.70;43.40
78775;DHT22;68119;43.398;3.676;2023-08-06T10:27:58;23.00;43.30
78775;DHT22;68119;43.398;3.676;2023-08-06T10:30:32;23.20;42.20
78775;DHT22;68119;43.398;3.676;2023-08-06T10:33:02;23.20;42.30
78775;DHT22;68119;43.398;3.676;2023-08-06T10:38:15;23.10;42.70
78775;DHT22;68119;43.398;3.676;2023-08-06T10:40:43;23.20;42.50
78775;DHT22;68119;43.398;3.676;2023-08-06T10:43:32;23.10;41.50
78775;DHT22;68119;43.398;3.676;2023-08-06T10:45:58;22.90;41.80
78775;DHT22;68119;43.398;3.676;2023-08-06T10:50:57;23.50;41.50
78775;DHT22;68119;43.398;3.676;2023-08-06T10:53:26;23.30;41.60
78775;DHT22;68119;43.398;3.676;2023-08-06T10:55:55;23.40;41.80
78775;DHT22;68119;43.398;3.676;2023-08-06T10:58:30;23.60;41.30
78775;DHT22;68119;43.398;3.676;2023-08-06T11:00:56;23.80;41.30
78775;DHT22;68119;43.398;3.676;2023-08-06T11:03:22;23.60;40.30
78775;DHT22;68119;43.398;3.676;2023-08-06T11:05:51;23.90;40.00
78775;DHT22;68119;43.398;3.676;2023-08-06T11:08:25;23.90;40.40
78775;DHT22;68119;43.398;3.676;2023-08-06T11:10:51;24.00;40.60
78775;DHT22;68119;43.398;3.676;2023-08-06T11:13:22;24.70;39.60
78775;DHT22;68119;43.398;3.676;2023-08-06T11:15:51;25.80;38.50
78775;DHT22;68119;43.398;3.676;2023-08-06T15:46:24;37.60;27.30
78775;DHT22;68119;43.398;3.676;2023-08-06T15:48:53;-34.60;22.60
78775;DHT22;68119;43.398;3.676;2023-08-06T15:51:21;-33.70;23.00
78775;DHT22;68119;43.398;3.676;2023-08-06T15:53:47;-33.10;23.70
78775;DHT22;68119;43.398;3.676;2023-08-06T15:56:16;-31.70;24.40
78775;DHT22;68119;43.398;3.676;2023-08-06T15:58:50;-31.70;24.50
78775;DHT22;68119;43.398;3.676;2023-08-06T16:03:42;-35.10;24.20
78775;DHT22;68119;43.398;3.676;2023-08-06T16:06:12;-31.00;25.10
78775;DHT22;68119;43.398;3.676;2023-08-06T16:08:40;9.80;34.50
78775;DHT22;68119;43.398;3.676;2023-08-06T16:11:06;14.00;35.30
78775;DHT22;68119;43.398;3.676;2023-08-06T16:13:34;17.80;35.80
78775;DHT22;68119;43.398;3.676;2023-08-06T16:16:02;20.50;36.00
78775;DHT22;68119;43.398;3.676;2023-08-06T16:18:31;25.80;36.60
78775;DHT22;68119;43.398;3.676;2023-08-06T16:20:57;26.40;36.30
78775;DHT22;68119;43.398;3.676;2023-08-06T16:23:25;26.20;36.30
78775;DHT22;68119;43.398;3.676;2023-08-06T16:25:51;26.10;36.10
78775;DHT22;68119;43.398;3.676;2023-08-06T16:28:25;25.90;36.30
78775;DHT22;68119;43.398;3.676;2023-08-06T16:30:54;24.00;36.70
78775;DHT22;68119;43.398;3.676;2023-08-06T16:33:23;26.00;36.80
78775;DHT22;68119;43.398;3.676;2023-08-06T16:35:48;26.40;36.30
78775;DHT22;68119;43.398;3.676;2023-08-06T16:38:17;26.60;35.80
78775;DHT22;68119;43.398;3.676;2023-08-06T16:45:44;25.90;35.90
78775;DHT22;68119;43.398;3.676;2023-08-06T16:48:16;26.00;36.90
78775;DHT22;68119;43.398;3.676;2023-08-06T16:50:42;26.10;36.90
78775;DHT22;68119;43.398;3.676;2023-08-06T16:53:11;26.20;36.60
78775;DHT22;68119;43.398;3.676;2023-08-06T16:58:08;25.90;36.10
78775;DHT22;68119;43.398;3.676;2023-08-06T17:00:34;26.00;36.00
78775;DHT22;68119;43.398;3.676;2023-08-06T17:03:00;26.00;36.30
78775;DHT22;68119;43.398;3.676;2023-08-06T17:05:26;26.00;36.60
78775;DHT22;68119;43.398;3.676;2023-08-06T17:07:55;25.60;37.40
78775;DHT22;68119;43.398;3.676;2023-08-06T17:10:26;25.10;37.70
78775;DHT22;68119;43.398;3.676;2023-08-06T17:12:58;-13.10;32.40
78775;DHT22;68119;43.398;3.676;2023-08-06T17:15:27;25.20;37.10
78775;DHT22;68119;43.398;3.676;2023-08-06T17:18:04;25.00;37.60
